createdAt,value
2022-08-17T00:02:26.756Z,101112.78
2022-08-17T00:05:36.054Z,101102.56
2022-08-17T00:08:44.603Z,101105.19
2022-08-17T00:12:41.471Z,101113.22
2022-08-17T00:15:18.282Z,101105.50
2022-08-17T00:19:02.079Z,101109.56
2022-08-17T00:22:28.738Z,101117.59
2022-08-17T00:25:20.738Z,101118.78
2022-08-17T00:28:26.280Z,101107.38
2022-08-17T00:31:38.450Z,101105.97
2022-08-17T00:34:43.654Z,101110.22
2022-08-17T00:37:49.020Z,101107.13
2022-08-17T00:40:59.195Z,101098.38
2022-08-17T00:44:06.581Z,101104.06
2022-08-17T00:47:15.149Z,101111.78
2022-08-17T00:50:21.293Z,101115.22
2022-08-17T00:53:27.248Z,101109.94
2022-08-17T00:56:37.992Z,101112.44
2022-08-17T01:00:01.599Z,101117.88
2022-08-17T01:03:21.933Z,101124.66
2022-08-17T01:06:28.325Z,101122.56
2022-08-17T01:09:34.709Z,101120.16
2022-08-17T01:12:40.100Z,101127.66
2022-08-17T01:15:49.922Z,101116.41
2022-08-17T01:19:06.738Z,101119.84
2022-08-17T01:22:24.906Z,101118.28
2022-08-17T01:25:30.873Z,101121.63
2022-08-17T01:28:53.414Z,101112.34
2022-08-17T01:32:05.687Z,101111.66
2022-08-17T01:35:11.820Z,101114.13
2022-08-17T01:38:19.760Z,101111.88
2022-08-17T01:41:32.409Z,101113.22
2022-08-17T01:44:38.156Z,101105.84
2022-08-17T01:47:44.010Z,101114.78
2022-08-17T01:50:52.426Z,101117.91
2022-08-17T01:54:05.409Z,101113.22
2022-08-17T01:57:11.819Z,101114.56
2022-08-17T02:00:18.353Z,101117.47
2022-08-17T02:03:25.314Z,101118.22
2022-08-17T02:06:44.846Z,101120.28
2022-08-17T02:09:52.818Z,101115.09
2022-08-17T02:12:58.311Z,101112.00
2022-08-17T02:16:04.001Z,101110.81
2022-08-17T02:19:12.195Z,101115.81
2022-08-17T02:22:18.292Z,101113.75
2022-08-17T02:25:24.735Z,101124.56
2022-08-17T02:28:30.855Z,101119.56
2022-08-17T02:31:36.642Z,101112.09
2022-08-17T02:34:41.719Z,101126.06
2022-08-17T02:37:46.790Z,101125.94
2022-08-17T02:40:58.751Z,101125.84
2022-08-17T02:44:06.174Z,101123.56
2022-08-17T02:47:13.742Z,101123.56
2022-08-17T02:50:22.200Z,101119.81
2022-08-17T02:53:27.689Z,101125.41
2022-08-17T02:56:42.181Z,101119.28
2022-08-17T02:59:49.126Z,101125.84
2022-08-17T03:02:54.707Z,101124.28
2022-08-17T03:05:59.922Z,101129.38
2022-08-17T03:09:05.622Z,101133.75
2022-08-17T03:12:14.997Z,101123.13
2022-08-17T03:15:24.386Z,101120.63
2022-08-17T03:18:29.911Z,101125.72
2022-08-17T03:21:35.079Z,101137.09
2022-08-17T03:24:40.073Z,101138.34
2022-08-17T03:27:48.239Z,101144.38
2022-08-17T03:30:56.894Z,101137.72
2022-08-17T03:34:02.180Z,101126.22
2022-08-17T03:37:07.422Z,101134.19
2022-08-17T03:40:15.185Z,101132.22
2022-08-17T03:43:41.441Z,101132.41
2022-08-17T03:47:04.136Z,101128.69
2022-08-17T03:50:33.829Z,101123.84
2022-08-17T03:54:06.799Z,101123.22
2022-08-17T03:57:13.400Z,101127.19
2022-08-17T04:00:20.264Z,101121.25
2022-08-17T04:03:25.401Z,101131.56
2022-08-17T04:06:30.785Z,101126.34
2022-08-17T04:09:36.588Z,101132.81
2022-08-17T04:12:48.563Z,101134.03
2022-08-17T04:15:55.177Z,101131.97
2022-08-17T04:19:00.764Z,101119.97
2022-08-17T04:22:06.428Z,101128.09
2022-08-17T04:25:19.518Z,101138.63
2022-08-17T04:28:34.834Z,101139.56
2022-08-17T04:31:41.327Z,101134.78
2022-08-17T04:34:46.956Z,101136.56
2022-08-17T04:37:52.370Z,101140.81
2022-08-17T04:41:15.903Z,101132.91
2022-08-17T04:44:30.414Z,101145.31
2022-08-17T04:47:44.626Z,101145.38
2022-08-17T04:50:51.750Z,101140.50
2022-08-17T04:54:00.446Z,101139.94
2022-08-17T04:57:06.167Z,101140.78
2022-08-17T05:00:13.316Z,101137.97
2022-08-17T05:03:20.287Z,101131.13
2022-08-17T05:06:25.888Z,101137.44
2022-08-17T05:09:31.310Z,101131.53
2022-08-17T05:12:36.863Z,101123.06
2022-08-17T05:15:45.063Z,101129.94
2022-08-17T05:18:54.367Z,101128.69
2022-08-17T05:21:59.434Z,101128.84
2022-08-17T05:25:05.039Z,101130.38
2022-08-17T05:28:12.094Z,101139.94
2022-08-17T05:31:17.387Z,101134.94
2022-08-17T05:34:23.742Z,101132.53
2022-08-17T05:37:29.257Z,101132.44
2022-08-17T05:40:34.507Z,101135.97
2022-08-17T05:43:42.001Z,101142.63
2022-08-17T05:46:51.587Z,101144.63
2022-08-17T05:49:58.594Z,101154.72
2022-08-17T05:53:11.119Z,101157.22
2022-08-17T05:56:30.264Z,101157.09
2022-08-17T05:59:45.960Z,101155.16
2022-08-17T06:03:16.978Z,101157.69
2022-08-17T06:06:41.333Z,101174.41
2022-08-17T06:09:53.814Z,101166.34
2022-08-17T06:13:10.595Z,101176.19
2022-08-17T06:16:28.210Z,101169.50
2022-08-17T06:19:42.154Z,101178.00
2022-08-17T06:22:53.306Z,101171.53
2022-08-17T06:26:05.306Z,101169.66
2022-08-17T06:29:28.972Z,101190.47
2022-08-17T06:32:35.927Z,101185.19
2022-08-17T06:35:46.107Z,101176.03
2022-08-17T06:39:01.058Z,101187.97
2022-08-17T06:43:02.269Z,101179.16
2022-08-17T06:45:49.550Z,101187.28
2022-08-17T06:49:11.639Z,101189.13
2022-08-17T06:52:46.296Z,101180.13
2022-08-17T06:55:57.239Z,101181.31
2022-08-17T06:59:03.643Z,101186.28
2022-08-17T07:02:11.288Z,101182.19
2022-08-17T07:05:19.092Z,101185.44
2022-08-17T07:08:35.088Z,101182.34
2022-08-17T07:11:50.742Z,101185.50
2022-08-17T07:15:05.522Z,101180.59
2022-08-17T07:18:15.547Z,101187.25
2022-08-17T07:21:38.536Z,101192.03
2022-08-17T07:24:52.811Z,101182.59
2022-08-17T07:28:02.545Z,101184.41
2022-08-17T07:31:14.348Z,101182.53
2022-08-17T07:34:19.843Z,101186.56
2022-08-17T07:37:25.027Z,101181.47
2022-08-17T07:40:34.435Z,101181.34
2022-08-17T07:43:49.959Z,101171.50
2022-08-17T07:47:13.289Z,101184.41
2022-08-17T07:50:27.939Z,101190.69
2022-08-17T07:53:33.091Z,101192.53
2022-08-17T07:56:43.737Z,101184.31
2022-08-17T08:00:16.948Z,101184.06
2022-08-17T08:03:27.255Z,101175.88
2022-08-17T08:06:37.948Z,101172.78
2022-08-17T08:09:46.933Z,101174.06
2022-08-17T08:13:07.342Z,101172.66
2022-08-17T08:16:27.261Z,101159.34
2022-08-17T08:19:33.104Z,101173.31
2022-08-17T08:22:47.862Z,101160.97
2022-08-17T08:26:05.236Z,101161.44
2022-08-17T08:29:22.489Z,101165.19
2022-08-17T08:32:51.322Z,101161.59
2022-08-17T08:36:03.489Z,101157.19
2022-08-17T08:39:17.151Z,101154.13
2022-08-17T08:42:30.014Z,101156.66
2022-08-17T08:45:45.796Z,101158.16
2022-08-17T08:49:59.536Z,101161.47
2022-08-17T08:53:23.598Z,101168.50
2022-08-17T08:56:36.177Z,101183.94
2022-08-17T08:59:57.911Z,101170.38
2022-08-17T09:03:52.266Z,101173.69
2022-08-17T09:07:11.181Z,101179.97
2022-08-17T09:10:26.549Z,101182.09
2022-08-17T09:13:43.871Z,101177.09
2022-08-17T09:16:57.849Z,101181.63
2022-08-17T09:20:06.573Z,101187.69
2022-08-17T09:23:20.923Z,101185.00
2022-08-17T09:26:32.872Z,101191.78
2022-08-17T09:29:43.985Z,101196.06
2022-08-17T09:32:58.809Z,101198.09
2022-08-17T09:36:10.063Z,101183.63
2022-08-17T09:39:23.814Z,101190.03
2022-08-17T09:42:36.480Z,101182.78
2022-08-17T09:45:49.459Z,101190.53
2022-08-17T09:49:02.288Z,101193.50
2022-08-17T09:52:12.710Z,101191.44
2022-08-17T09:55:19.466Z,101186.63
2022-08-17T09:58:31.763Z,101179.81
2022-08-17T10:01:40.221Z,101181.41
2022-08-17T10:04:52.815Z,101175.03
2022-08-17T10:08:08.697Z,101181.25
2022-08-17T10:11:48.407Z,101190.22
2022-08-17T10:15:18.929Z,101183.31
2022-08-17T10:18:43.381Z,101196.44
2022-08-17T10:22:19.326Z,101178.78
2022-08-17T10:25:56.537Z,101185.97
2022-08-17T10:29:07.883Z,101187.59
2022-08-17T10:32:32.352Z,101184.53
2022-08-17T10:35:45.663Z,101185.75
2022-08-17T10:39:04.007Z,101194.19
2022-08-17T10:42:30.113Z,101193.63
2022-08-17T10:46:09.246Z,101194.47
2022-08-17T10:49:29.441Z,101188.94
2022-08-17T10:52:50.110Z,101185.69
2022-08-17T10:56:42.277Z,101188.72
2022-08-17T10:59:53.195Z,101196.00
2022-08-17T11:03:00.761Z,101185.69
2022-08-17T11:06:17.519Z,101187.31
2022-08-17T11:09:33.852Z,101192.88
2022-08-17T11:12:45.056Z,101196.63
2022-08-17T11:16:04.850Z,101190.97
2022-08-17T11:20:05.605Z,101189.28
2022-08-17T11:23:54.941Z,101190.03
2022-08-17T11:27:12.280Z,101199.59
2022-08-17T11:30:44.843Z,101175.44
2022-08-17T11:33:59.778Z,101171.31
2022-08-17T11:37:47.759Z,101180.84
2022-08-17T11:41:11.294Z,101184.28
2022-08-17T11:44:31.888Z,101192.16
2022-08-17T11:48:26.161Z,101181.25
2022-08-17T11:51:43.105Z,101182.13
2022-08-17T11:54:50.974Z,101177.81
2022-08-17T11:58:01.790Z,101174.06
2022-08-17T12:01:09.873Z,101173.94
2022-08-17T12:04:27.717Z,101171.72
2022-08-17T12:07:34.377Z,101176.13
2022-08-17T12:10:58.218Z,101186.09
2022-08-17T12:14:03.420Z,101175.31
2022-08-17T12:17:11.322Z,101165.38
2022-08-17T12:20:24.227Z,101158.41
2022-08-17T12:23:40.499Z,101159.84
2022-08-17T12:26:57.339Z,101157.91
2022-08-17T12:30:07.121Z,101153.03
2022-08-17T12:33:25.594Z,101152.88
2022-08-17T12:36:34.841Z,101142.13
2022-08-17T12:39:40.643Z,101133.22
2022-08-17T12:42:57.328Z,101129.06
2022-08-17T12:46:13.014Z,101121.16
2022-08-17T12:49:34.331Z,101118.38
2022-08-17T12:52:42.329Z,101115.97
2022-08-17T12:55:47.980Z,101112.97
2022-08-17T12:58:55.621Z,101105.97
2022-08-17T13:02:02.316Z,101113.19
2022-08-17T13:05:14.941Z,101124.00
2022-08-17T13:08:35.302Z,101132.91
2022-08-17T13:11:49.927Z,101135.16
2022-08-17T13:14:57.491Z,101134.03
2022-08-17T13:18:08.890Z,101148.00
2022-08-17T13:21:26.773Z,101151.50
2022-08-17T13:24:38.065Z,101139.34
2022-08-17T13:27:44.440Z,101140.22
2022-08-17T13:30:50.884Z,101125.94
2022-08-17T13:34:19.040Z,101143.13
2022-08-17T13:37:32.708Z,101139.38
2022-08-17T13:40:43.280Z,101137.50
2022-08-17T13:43:49.622Z,101154.31
2022-08-17T13:46:57.431Z,101155.41
2022-08-17T13:50:02.790Z,101149.31
2022-08-17T13:53:22.384Z,101157.78
2022-08-17T13:56:39.517Z,101157.41
2022-08-17T13:59:55.030Z,101154.78
2022-08-17T14:03:05.426Z,101157.56
2022-08-17T14:06:10.431Z,101154.38
2022-08-17T14:09:17.047Z,101151.03
2022-08-17T14:12:29.583Z,101158.31
2022-08-17T14:15:56.364Z,101160.56
2022-08-17T14:19:02.555Z,101152.81
2022-08-17T14:22:20.763Z,101159.88
2022-08-17T14:25:29.448Z,101174.75
2022-08-17T14:28:36.433Z,101145.63
2022-08-17T14:31:42.425Z,101162.50
2022-08-17T14:34:57.176Z,101150.22
2022-08-17T14:38:03.095Z,101139.25
2022-08-17T14:41:08.275Z,101148.41
2022-08-17T14:44:13.523Z,101143.13
2022-08-17T14:47:18.940Z,101150.59
2022-08-17T14:50:25.770Z,101158.47
2022-08-17T14:53:32.343Z,101158.38
2022-08-17T14:56:38.357Z,101153.72
2022-08-17T14:59:43.449Z,101154.56
2022-08-17T15:02:53.642Z,101159.50
2022-08-17T15:06:00.478Z,101166.28
2022-08-17T15:09:05.686Z,101153.03
2022-08-17T15:12:24.313Z,101160.13
2022-08-17T15:15:35.280Z,101165.91
2022-08-17T15:18:41.472Z,101170.47
2022-08-17T15:21:47.956Z,101171.16
2022-08-17T15:24:52.987Z,101180.69
2022-08-17T15:27:58.842Z,101180.31
2022-08-17T15:31:05.727Z,101181.53
2022-08-17T15:34:13.701Z,101190.22
2022-08-17T15:37:20.071Z,101182.22
2022-08-17T15:40:25.357Z,101174.47
2022-08-17T15:43:33.459Z,101177.94
2022-08-17T15:46:39.291Z,101168.53
2022-08-17T15:49:46.381Z,101183.91
2022-08-17T15:52:59.294Z,101185.53
2022-08-17T15:56:05.340Z,101188.00
2022-08-17T15:59:11.272Z,101199.06
2022-08-17T16:03:13.893Z,101198.69
2022-08-17T16:05:46.299Z,101204.84
2022-08-17T16:08:54.334Z,101214.53
2022-08-17T16:12:00.149Z,101212.03
2022-08-17T16:15:08.251Z,101210.78
2022-08-17T16:18:14.007Z,101216.19
2022-08-17T16:21:39.331Z,101213.16
2022-08-17T16:24:57.410Z,101220.06
2022-08-17T16:28:02.706Z,101233.44
2022-08-17T16:31:08.783Z,101234.25
2022-08-17T16:34:18.024Z,101233.34
2022-08-17T16:37:23.908Z,101231.63
2022-08-17T16:40:35.818Z,101231.97
2022-08-17T16:43:41.760Z,101242.66
2022-08-17T16:46:48.794Z,101236.47
2022-08-17T16:49:54.370Z,101243.25
2022-08-17T16:53:09.197Z,101238.94
2022-08-17T16:56:19.207Z,101247.47
2022-08-17T16:59:31.226Z,101252.38
2022-08-17T17:02:47.794Z,101261.72
2022-08-17T17:06:06.386Z,101264.25
2022-08-17T17:09:16.398Z,101266.47
2022-08-17T17:12:34.890Z,101281.00
2022-08-17T17:15:56.075Z,101280.88
2022-08-17T17:19:11.200Z,101283.06
2022-08-17T17:22:19.518Z,101288.00
2022-08-17T17:25:29.799Z,101290.34
2022-08-17T17:28:57.304Z,101288.81
2022-08-17T17:32:17.323Z,101291.75
2022-08-17T17:35:27.556Z,101292.31
2022-08-17T17:38:39.304Z,101295.75
2022-08-17T17:41:48.949Z,101301.59
2022-08-17T17:45:05.050Z,101298.03
2022-08-17T17:48:12.399Z,101306.94
2022-08-17T17:52:09.075Z,101304.03
2022-08-17T17:55:05.575Z,101308.91
2022-08-17T17:58:27.595Z,101309.44
2022-08-17T18:01:46.169Z,101315.06
2022-08-17T18:05:01.992Z,101314.13
2022-08-17T18:08:34.689Z,101323.03
2022-08-17T18:12:12.478Z,101328.63
2022-08-17T18:15:29.487Z,101328.75
2022-08-17T18:18:44.071Z,101338.97
2022-08-17T18:21:54.511Z,101326.72
2022-08-17T18:24:59.609Z,101332.28
2022-08-17T18:28:05.241Z,101322.56
2022-08-17T18:31:18.223Z,101329.81
2022-08-17T18:34:46.589Z,101324.59
2022-08-17T18:37:55.421Z,101346.06
2022-08-17T18:41:06.250Z,101347.97
2022-08-17T18:44:26.121Z,101348.84
2022-08-17T18:47:31.358Z,101347.91
2022-08-17T18:50:41.339Z,101351.59
2022-08-17T18:53:46.457Z,101360.03
2022-08-17T18:56:56.437Z,101373.69
2022-08-17T19:00:02.001Z,101373.75
2022-08-17T19:03:24.689Z,101378.75
2022-08-17T19:06:35.092Z,101376.13
2022-08-17T19:09:45.099Z,101373.03
2022-08-17T19:13:00.456Z,101377.16
2022-08-17T19:16:14.601Z,101380.41
2022-08-17T19:19:24.427Z,101387.94
2022-08-17T19:22:43.821Z,101380.56
2022-08-17T19:25:52.478Z,101386.78
2022-08-17T19:29:01.542Z,101395.75
2022-08-17T19:32:08.895Z,101388.47
2022-08-17T19:35:17.567Z,101383.75
2022-08-17T19:38:36.102Z,101382.81
2022-08-17T19:41:51.199Z,101383.63
2022-08-17T19:45:03.987Z,101381.84
2022-08-17T19:48:21.817Z,101389.19
2022-08-17T19:51:35.322Z,101390.56
2022-08-17T19:54:52.368Z,101401.25
2022-08-17T19:58:06.307Z,101402.91
2022-08-17T20:01:19.233Z,101404.84
2022-08-17T20:04:36.680Z,101417.00
2022-08-17T20:07:48.588Z,101419.50
2022-08-17T20:10:58.951Z,101419.03
2022-08-17T20:14:08.535Z,101426.03
2022-08-17T20:17:14.525Z,101432.81
2022-08-17T20:20:30.319Z,101434.06
2022-08-17T20:23:51.167Z,101437.00
2022-08-17T20:27:00.268Z,101437.09
2022-08-17T20:30:12.271Z,101437.94
2022-08-17T20:33:28.630Z,101434.59
2022-08-17T20:36:37.001Z,101431.16
2022-08-17T20:39:45.680Z,101440.38
2022-08-17T20:42:52.696Z,101454.28
2022-08-17T20:46:14.274Z,101439.44
2022-08-17T20:49:28.258Z,101448.63
2022-08-17T20:52:53.242Z,101450.53
2022-08-17T20:55:58.908Z,101455.94
2022-08-17T20:59:05.478Z,101462.19
2022-08-17T21:02:14.020Z,101461.34
2022-08-17T21:05:32.373Z,101468.34
2022-08-17T21:08:45.880Z,101475.94
2022-08-17T21:12:04.556Z,101462.06
2022-08-17T21:15:31.056Z,101473.25
2022-08-17T21:18:45.690Z,101473.66
2022-08-17T21:22:04.870Z,101467.41
2022-08-17T21:25:24.561Z,101473.16
2022-08-17T21:28:37.232Z,101473.44
2022-08-17T21:32:24.728Z,101465.09
2022-08-17T21:35:48.971Z,101476.34
2022-08-17T21:39:04.509Z,101473.13
2022-08-17T21:42:11.261Z,101471.25
2022-08-17T21:45:23.922Z,101476.16
2022-08-17T21:48:33.278Z,101484.41
2022-08-17T21:51:44.835Z,101482.75
2022-08-17T21:54:52.862Z,101488.56
2022-08-17T21:58:13.736Z,101482.94
2022-08-17T22:01:26.833Z,101479.81
2022-08-17T22:04:36.398Z,101485.84
2022-08-17T22:07:45.351Z,101492.31
2022-08-17T22:10:55.522Z,101493.97
2022-08-17T22:14:05.943Z,101503.56
2022-08-17T22:17:20.103Z,101495.00
2022-08-17T22:20:26.741Z,101502.22
2022-08-17T22:23:52.967Z,101495.84
2022-08-17T22:27:11.105Z,101497.72
2022-08-17T22:30:34.483Z,101503.34
2022-08-17T22:33:45.620Z,101503.53
2022-08-17T22:37:27.537Z,101507.81
2022-08-17T22:40:34.892Z,101510.28
2022-08-17T22:43:43.657Z,101512.47
2022-08-17T22:47:01.972Z,101518.34
2022-08-17T22:50:19.191Z,101525.50
2022-08-17T22:53:42.986Z,101527.38
2022-08-17T22:57:18.934Z,101533.28
2022-08-17T23:00:39.253Z,101538.31
2022-08-17T23:03:54.600Z,101543.81
2022-08-17T23:07:00.221Z,101541.56
2022-08-17T23:10:08.255Z,101538.00
2022-08-17T23:13:14.330Z,101541.13
2022-08-17T23:16:21.090Z,101546.34
2022-08-17T23:19:28.322Z,101545.06
2022-08-17T23:22:34.109Z,101552.31
2022-08-17T23:25:44.475Z,101549.19
2022-08-17T23:28:50.270Z,101558.31
2022-08-17T23:31:57.805Z,101547.72
2022-08-17T23:35:02.891Z,101553.66
2022-08-17T23:38:08.101Z,101547.72
2022-08-17T23:41:18.145Z,101548.72
2022-08-17T23:44:24.461Z,101549.66
2022-08-17T23:47:29.768Z,101535.16
2022-08-17T23:50:35.183Z,101542.63
2022-08-17T23:53:48.687Z,101542.91
2022-08-17T23:56:55.296Z,101542.66
